createdAt,value
2018-06-12T00:01:26.565Z,101129.86
2018-06-12T00:03:54.532Z,101121.98
2018-06-12T00:06:22.217Z,101125.95
2018-06-12T00:08:49.927Z,101118.47
2018-06-12T00:11:17.929Z,101119.34
2018-06-12T00:13:45.859Z,101115.38
2018-06-12T00:16:13.524Z,101122.77
2018-06-12T00:18:41.238Z,101121.00
2018-06-12T00:21:08.906Z,101121.41
2018-06-12T00:23:36.559Z,101115.19
2018-06-12T00:26:04.300Z,101116.98
2018-06-12T00:28:32.225Z,101115.19
2018-06-12T00:31:00.145Z,101123.59
2018-06-12T00:33:27.847Z,101120.03
2018-06-12T00:35:56.085Z,101114.30
2018-06-12T00:38:23.778Z,101113.81
2018-06-12T00:40:51.423Z,101107.22
2018-06-12T00:43:19.373Z,101107.61
2018-06-12T00:45:47.338Z,101107.22
2018-06-12T00:48:14.946Z,101106.82
2018-06-12T00:50:42.865Z,101106.03
2018-06-12T00:53:10.981Z,101109.56
2018-06-12T00:55:38.600Z,101113.13
2018-06-12T00:58:06.465Z,101110.49
2018-06-12T01:00:34.774Z,101114.91
2018-06-12T01:03:02.385Z,101106.60
2018-06-12T01:05:30.234Z,101111.88
2018-06-12T01:07:58.160Z,101110.17
2018-06-12T01:10:26.034Z,101108.01
2018-06-12T01:12:53.672Z,101107.63
2018-06-12T01:15:21.533Z,101105.91
2018-06-12T01:17:49.395Z,101111.59
2018-06-12T01:20:17.325Z,101109.03
2018-06-12T01:22:45.238Z,101109.03
2018-06-12T01:25:13.448Z,101106.84
2018-06-12T01:27:41.065Z,101103.33
2018-06-12T01:30:08.656Z,101101.95
2018-06-12T01:32:36.269Z,101107.72
2018-06-12T01:35:03.853Z,101106.39
2018-06-12T01:37:31.835Z,101106.84
2018-06-12T01:39:59.716Z,101106.84
2018-06-12T01:42:27.340Z,101101.95
2018-06-12T01:44:55.079Z,101106.39
2018-06-12T01:47:23.012Z,101104.64
2018-06-12T01:49:50.614Z,101104.64
2018-06-12T01:52:18.385Z,101105.52
2018-06-12T01:54:46.342Z,101111.25
2018-06-12T01:57:13.956Z,101104.36
2018-06-12T01:59:42.212Z,101104.36
2018-06-12T02:02:10.283Z,101108.41
2018-06-12T02:04:38.149Z,101101.80
2018-06-12T02:07:06.320Z,101100.53
2018-06-12T02:09:34.426Z,101098.87
2018-06-12T02:12:02.289Z,101102.41
2018-06-12T02:14:29.891Z,101093.24
2018-06-12T02:16:57.833Z,101099.42
2018-06-12T02:19:25.796Z,101092.90
2018-06-12T02:21:53.720Z,101102.06
2018-06-12T02:24:21.362Z,101103.86
2018-06-12T02:26:49.274Z,101105.63
2018-06-12T02:29:16.953Z,101104.78
2018-06-12T02:31:44.544Z,101095.59
2018-06-12T02:34:12.154Z,101096.43
2018-06-12T02:36:40.111Z,101096.03
2018-06-12T02:39:08.373Z,101096.96
2018-06-12T02:41:35.980Z,101095.64
2018-06-12T02:44:03.908Z,101099.60
2018-06-12T02:46:31.501Z,101095.69
2018-06-12T02:48:59.383Z,101089.14
2018-06-12T02:51:28.165Z,101087.43
2018-06-12T02:53:56.105Z,101079.11
2018-06-12T02:56:23.731Z,101078.29
2018-06-12T02:58:52.177Z,101073.94
2018-06-12T03:01:20.072Z,101078.81
2018-06-12T03:03:47.970Z,101075.78
2018-06-12T03:06:16.448Z,101072.27
2018-06-12T03:08:44.195Z,101075.36
2018-06-12T03:11:11.810Z,101077.59
2018-06-12T03:13:39.428Z,101075.83
2018-06-12T03:16:07.331Z,101078.05
2018-06-12T03:18:35.617Z,101077.59
2018-06-12T03:21:03.585Z,101079.36
2018-06-12T03:23:31.173Z,101079.84
2018-06-12T03:25:59.761Z,101081.16
2018-06-12T03:28:27.785Z,101081.22
2018-06-12T03:30:55.814Z,101092.66
2018-06-12T03:33:23.701Z,101087.64
2018-06-12T03:35:51.616Z,101086.34
2018-06-12T03:38:19.234Z,101095.01
2018-06-12T03:40:47.533Z,101089.38
2018-06-12T03:43:15.208Z,101090.75
2018-06-12T03:45:43.142Z,101087.33
2018-06-12T03:48:11.613Z,101086.89
2018-06-12T03:50:39.280Z,101086.50
2018-06-12T03:53:06.885Z,101092.27
2018-06-12T03:55:34.510Z,101096.67
2018-06-12T03:58:02.717Z,101097.98
2018-06-12T04:00:30.693Z,101097.55
2018-06-12T04:02:58.276Z,101097.59
2018-06-12T04:05:26.195Z,101097.98
2018-06-12T04:07:53.912Z,101097.59
2018-06-12T04:10:21.807Z,101101.13
2018-06-12T04:12:49.769Z,101104.69
2018-06-12T04:15:18.076Z,101107.81
2018-06-12T04:17:45.693Z,101107.38
2018-06-12T04:20:13.318Z,101118.42
2018-06-12T04:22:41.948Z,101114.51
2018-06-12T04:25:09.928Z,101110.60
2018-06-12T04:27:37.544Z,101102.63
2018-06-12T04:30:05.528Z,101108.30
2018-06-12T04:32:33.155Z,101103.84
2018-06-12T04:35:00.806Z,101099.02
2018-06-12T04:37:28.742Z,101103.55
2018-06-12T04:39:56.452Z,101106.14
2018-06-12T04:42:24.062Z,101104.87
2018-06-12T04:44:51.731Z,101104.39
2018-06-12T04:47:19.640Z,101119.79
2018-06-12T04:49:47.266Z,101117.20
2018-06-12T04:52:15.257Z,101114.61
2018-06-12T04:54:43.224Z,101115.48
2018-06-12T04:57:11.365Z,101113.29
2018-06-12T04:59:39.254Z,101106.00
2018-06-12T05:02:07.399Z,101110.30
2018-06-12T05:04:35.008Z,101110.30
2018-06-12T05:07:03.131Z,101110.75
2018-06-12T05:09:30.761Z,101113.12
2018-06-12T05:11:58.419Z,101105.83
2018-06-12T05:14:26.069Z,101115.88
2018-06-12T05:16:54.043Z,101113.30
2018-06-12T05:19:21.987Z,101115.79
2018-06-12T05:21:49.643Z,101119.17
2018-06-12T05:24:17.556Z,101122.11
2018-06-12T05:26:46.111Z,101120.27
2018-06-12T05:29:13.767Z,101126.38
2018-06-12T05:31:41.700Z,101131.65
2018-06-12T05:34:09.740Z,101126.23
2018-06-12T05:36:37.365Z,101125.70
2018-06-12T05:39:08.569Z,101123.89
2018-06-12T05:41:37.163Z,101123.41
2018-06-12T05:44:04.822Z,101121.25
2018-06-12T05:46:33.188Z,101125.16
2018-06-12T05:49:01.009Z,101123.80
2018-06-12T05:51:28.927Z,101131.23
2018-06-12T05:53:56.537Z,101129.91
2018-06-12T05:56:24.261Z,101138.17
2018-06-12T05:58:52.303Z,101131.09
2018-06-12T06:01:20.620Z,101132.41
2018-06-12T06:03:48.583Z,101131.97
2018-06-12T06:06:16.371Z,101131.91
2018-06-12T06:08:44.242Z,101136.17
2018-06-12T06:11:12.160Z,101139.11
2018-06-12T06:13:39.799Z,101130.31
2018-06-12T06:16:07.705Z,101126.30
2018-06-12T06:18:35.404Z,101126.64
2018-06-12T06:21:05.544Z,101124.74
2018-06-12T06:23:33.225Z,101120.78
2018-06-12T06:26:00.877Z,101131.69
2018-06-12T06:28:28.811Z,101123.03
2018-06-12T06:30:56.493Z,101124.59
2018-06-12T06:33:24.115Z,101130.95
2018-06-12T06:35:52.132Z,101129.68
2018-06-12T06:38:20.063Z,101133.59
2018-06-12T06:40:47.733Z,101131.83
2018-06-12T06:43:15.416Z,101132.17
2018-06-12T06:45:43.049Z,101128.21
2018-06-12T06:48:10.933Z,101133.02
2018-06-12T06:50:38.864Z,101131.74
2018-06-12T06:53:06.489Z,101131.30
2018-06-12T06:55:34.168Z,101138.87
2018-06-12T06:58:01.790Z,101144.11
2018-06-12T07:00:29.433Z,101141.47
2018-06-12T07:02:57.074Z,101139.27
2018-06-12T07:05:24.681Z,101153.75
2018-06-12T07:07:52.333Z,101140.59
2018-06-12T07:10:19.954Z,101151.16
2018-06-12T07:12:47.611Z,101133.98
2018-06-12T07:15:15.232Z,101141.12
2018-06-12T07:17:42.916Z,101134.09
2018-06-12T07:20:10.555Z,101139.95
2018-06-12T07:22:38.217Z,101141.32
2018-06-12T07:25:05.861Z,101140.53
2018-06-12T07:27:33.481Z,101150.16
2018-06-12T07:30:01.107Z,101152.41
2018-06-12T07:32:29.093Z,101154.70
2018-06-12T07:34:57.463Z,101147.76
2018-06-12T07:37:26.039Z,101143.37
2018-06-12T07:39:55.625Z,101151.72
2018-06-12T07:42:24.806Z,101154.41
2018-06-12T07:44:53.513Z,101147.08
2018-06-12T07:47:26.242Z,101146.30
2018-06-12T07:49:57.768Z,101131.14
2018-06-12T07:52:26.406Z,101157.14
2018-06-12T07:54:54.733Z,101154.11
2018-06-12T07:57:23.124Z,101151.02
2018-06-12T07:59:51.465Z,101152.21
2018-06-12T08:02:19.990Z,101143.27
2018-06-12T08:04:48.203Z,101146.84
2018-06-12T08:07:16.483Z,101143.75
2018-06-12T08:09:44.704Z,101142.69
2018-06-12T08:12:13.104Z,101144.44
2018-06-12T08:14:42.866Z,101146.11
2018-06-12T08:17:11.536Z,101148.22
2018-06-12T08:19:39.924Z,101148.22
2018-06-12T08:22:08.410Z,101148.75
2018-06-12T08:24:36.853Z,101153.68
2018-06-12T08:27:05.112Z,101164.59
2018-06-12T08:29:35.321Z,101147.67
2018-06-12T08:32:05.273Z,101154.19
2018-06-12T08:34:33.731Z,101147.09
2018-06-12T08:37:01.866Z,101168.91
2018-06-12T08:39:30.073Z,101153.85
2018-06-12T08:41:58.511Z,101164.02
2018-06-12T08:44:26.892Z,101167.30
2018-06-12T08:46:55.505Z,101159.37
2018-06-12T08:49:23.931Z,101169.14
2018-06-12T08:51:52.331Z,101172.81
2018-06-12T08:54:20.671Z,101177.40
2018-06-12T08:56:49.501Z,101172.12
2018-06-12T08:59:17.908Z,101169.92
2018-06-12T09:01:47.687Z,101171.59
2018-06-12T09:04:15.943Z,101169.88
2018-06-12T09:06:44.191Z,101166.01
2018-06-12T09:09:12.565Z,101173.23
2018-06-12T09:11:40.261Z,101166.23
2018-06-12T09:14:07.893Z,101175.87
2018-06-12T09:16:35.813Z,101170.06
2018-06-12T09:19:03.418Z,101166.88
2018-06-12T09:21:31.410Z,101161.90
2018-06-12T09:23:59.089Z,101161.81
2018-06-12T09:26:26.830Z,101156.91
2018-06-12T09:28:55.351Z,101158.00
2018-06-12T09:31:23.129Z,101157.42
2018-06-12T09:33:51.028Z,101151.59
2018-06-12T09:36:24.391Z,101150.99
2018-06-12T09:38:52.529Z,101158.97
2018-06-12T09:41:20.433Z,101158.64
2018-06-12T09:43:48.044Z,101168.81
2018-06-12T09:46:15.830Z,101164.42
2018-06-12T09:48:43.467Z,101174.24
2018-06-12T09:51:11.107Z,101171.26
2018-06-12T09:53:39.149Z,101184.11
2018-06-12T09:56:06.785Z,101183.23
2018-06-12T09:58:34.396Z,101188.66
2018-06-12T10:01:07.608Z,101185.19
2018-06-12T10:03:35.254Z,101195.30
2018-06-12T10:06:04.021Z,101190.52
2018-06-12T10:08:31.708Z,101200.28
2018-06-12T10:10:59.386Z,101198.24
2018-06-12T10:13:27.060Z,101197.84
2018-06-12T10:15:54.958Z,101203.05
2018-06-12T10:18:22.649Z,101193.94
2018-06-12T10:20:50.293Z,101201.91
2018-06-12T10:23:17.884Z,101207.63
2018-06-12T10:25:45.720Z,101204.07
2018-06-12T10:28:13.735Z,101209.30
2018-06-12T10:30:41.389Z,101200.53
2018-06-12T10:33:09.175Z,101196.58
2018-06-12T10:35:37.420Z,101200.63
2018-06-12T10:38:05.150Z,101205.91
2018-06-12T10:40:32.826Z,101200.63
2018-06-12T10:43:00.436Z,101206.02
2018-06-12T10:45:28.607Z,101202.10
2018-06-12T10:47:56.881Z,101204.83
2018-06-12T10:50:24.634Z,101216.36
2018-06-12T10:52:52.249Z,101215.63
2018-06-12T10:55:19.872Z,101207.53
2018-06-12T10:57:47.507Z,101216.52
2018-06-12T11:00:15.471Z,101215.64
2018-06-12T11:02:43.623Z,101211.63
2018-06-12T11:05:11.269Z,101211.02
2018-06-12T11:07:39.169Z,101213.46
2018-06-12T11:10:06.821Z,101207.26
2018-06-12T11:12:35.305Z,101210.42
2018-06-12T11:15:02.928Z,101208.13
2018-06-12T11:17:30.873Z,101213.72
2018-06-12T11:19:58.525Z,101200.03
2018-06-12T11:22:26.139Z,101206.19
2018-06-12T11:24:53.903Z,101204.39
2018-06-12T11:27:22.081Z,101210.02
2018-06-12T11:29:49.965Z,101209.97
2018-06-12T11:32:17.616Z,101208.70
2018-06-12T11:34:45.706Z,101208.78
2018-06-12T11:37:13.550Z,101208.53
2018-06-12T11:39:41.738Z,101209.20
2018-06-12T11:42:09.913Z,101207.48
2018-06-12T11:44:37.909Z,101205.14
2018-06-12T11:47:05.529Z,101209.50
2018-06-12T11:49:33.466Z,101206.81
2018-06-12T11:52:01.576Z,101205.98
2018-06-12T11:54:29.169Z,101211.84
2018-06-12T11:56:57.248Z,101203.52
2018-06-12T11:59:25.029Z,101201.08
2018-06-12T12:01:53.027Z,101204.86
2018-06-12T12:04:20.919Z,101215.03
2018-06-12T12:06:48.542Z,101207.59
2018-06-12T12:09:16.211Z,101212.47
2018-06-12T12:11:44.057Z,101212.34
2018-06-12T12:14:11.646Z,101207.89
2018-06-12T12:16:39.681Z,101205.51
2018-06-12T12:19:07.325Z,101201.38
2018-06-12T12:21:35.205Z,101209.20
2018-06-12T12:24:02.862Z,101202.02
2018-06-12T12:26:30.792Z,101202.28
2018-06-12T12:28:58.723Z,101199.41
2018-06-12T12:31:26.373Z,101193.06
2018-06-12T12:33:54.481Z,101200.31
2018-06-12T12:36:22.632Z,101207.91
2018-06-12T12:38:50.361Z,101210.88
2018-06-12T12:41:17.960Z,101212.59
2018-06-12T12:43:46.166Z,101201.92
2018-06-12T12:46:14.342Z,101201.82
2018-06-12T12:48:42.335Z,101207.45
2018-06-12T12:51:10.300Z,101162.45
2018-06-12T12:53:37.927Z,101200.11
2018-06-12T12:56:05.705Z,101202.40
2018-06-12T12:58:33.568Z,101203.50
2018-06-12T13:01:01.185Z,101203.70
2018-06-12T13:03:29.510Z,101203.52
2018-06-12T13:05:57.444Z,101211.49
2018-06-12T13:08:25.080Z,101204.41
2018-06-12T13:10:52.746Z,101212.45
2018-06-12T13:13:20.609Z,101210.79
2018-06-12T13:15:48.303Z,101214.84
2018-06-12T13:18:15.946Z,101220.61
2018-06-12T13:20:43.933Z,101213.17
2018-06-12T13:23:11.788Z,101217.13
2018-06-12T13:25:39.381Z,101213.66
2018-06-12T13:28:06.997Z,101212.52
2018-06-12T13:30:35.378Z,101221.40
2018-06-12T13:33:03.543Z,101215.77
2018-06-12T13:35:31.164Z,101219.38
2018-06-12T13:37:59.235Z,101226.50
2018-06-12T13:40:27.125Z,101226.11
2018-06-12T13:42:54.768Z,101226.06
2018-06-12T13:45:23.137Z,101226.45
2018-06-12T13:47:50.995Z,101217.22
2018-06-12T13:50:19.166Z,101226.02
2018-06-12T13:52:47.251Z,101225.14
2018-06-12T13:55:14.857Z,101222.10
2018-06-12T13:57:42.819Z,101213.17
2018-06-12T14:00:10.985Z,101211.24
2018-06-12T14:02:39.228Z,101214.94
2018-06-12T14:05:07.328Z,101206.40
2018-06-12T14:07:34.961Z,101206.40
2018-06-12T14:10:02.599Z,101196.45
2018-06-12T14:12:30.591Z,101203.98
2018-06-12T14:14:58.663Z,101205.30
2018-06-12T14:17:26.264Z,101206.22
2018-06-12T14:19:54.435Z,101210.53
2018-06-12T14:22:22.079Z,101201.16
2018-06-12T14:24:50.394Z,101204.11
2018-06-12T14:27:18.518Z,101200.66
2018-06-12T14:29:46.242Z,101191.72
2018-06-12T14:32:14.378Z,101201.19
2018-06-12T14:34:42.018Z,101195.08
2018-06-12T14:37:09.650Z,101197.47
2018-06-12T14:39:37.309Z,101193.77
2018-06-12T14:42:05.011Z,101204.33
2018-06-12T14:44:32.801Z,101202.38
2018-06-12T14:47:01.315Z,101198.98
2018-06-12T14:49:29.347Z,101194.77
2018-06-12T14:51:57.008Z,101197.81
2018-06-12T14:54:24.901Z,101196.64
2018-06-12T14:56:53.044Z,101197.42
2018-06-12T14:59:20.669Z,101190.07
2018-06-12T15:01:48.544Z,101194.66
2018-06-12T15:04:16.295Z,101199.64
2018-06-12T15:06:44.485Z,101196.66
2018-06-12T15:09:12.202Z,101200.96
2018-06-12T15:11:40.158Z,101186.11
2018-06-12T15:14:07.801Z,101187.40
2018-06-12T15:16:35.696Z,101180.80
2018-06-12T15:19:03.343Z,101181.80
2018-06-12T15:21:31.686Z,101166.53
2018-06-12T15:23:59.321Z,101185.91
2018-06-12T15:26:27.652Z,101183.50
2018-06-12T15:28:55.282Z,101172.03
2018-06-12T15:31:22.928Z,101171.43
2018-06-12T15:33:50.582Z,101179.05
2018-06-12T15:36:18.193Z,101184.85
2018-06-12T15:38:46.006Z,101176.19
2018-06-12T15:41:13.689Z,101184.14
2018-06-12T15:43:41.544Z,101195.63
2018-06-12T15:46:09.177Z,101188.29
2018-06-12T15:48:36.805Z,101190.67
2018-06-12T15:51:04.491Z,101183.33
2018-06-12T15:53:32.105Z,101179.06
2018-06-12T15:56:00.546Z,101187.15
2018-06-12T15:58:28.441Z,101179.28
2018-06-12T16:00:56.618Z,101170.09
2018-06-12T16:03:24.454Z,101175.94
2018-06-12T16:05:52.180Z,101172.02
2018-06-12T16:08:20.174Z,101170.70
2018-06-12T16:10:48.657Z,101179.06
2018-06-12T16:13:16.320Z,101170.70
2018-06-12T16:15:43.942Z,101171.23
2018-06-12T16:18:11.729Z,101175.76
2018-06-12T16:20:39.614Z,101170.13
2018-06-12T16:23:07.505Z,101160.09
2018-06-12T16:25:35.180Z,101164.50
2018-06-12T16:28:02.805Z,101157.50
2018-06-12T16:30:30.740Z,101165.41
2018-06-12T16:32:58.341Z,101164.54
2018-06-12T16:35:26.282Z,101157.11
2018-06-12T16:37:53.870Z,101152.59
2018-06-12T16:40:23.595Z,101147.67
2018-06-12T16:42:51.808Z,101162.82
2018-06-12T16:45:19.725Z,101158.55
2018-06-12T16:47:47.372Z,101155.84
2018-06-12T16:50:15.005Z,101158.87
2018-06-12T16:52:42.857Z,101165.13
2018-06-12T16:55:10.541Z,101151.30
2018-06-12T16:57:38.166Z,101151.21
2018-06-12T17:00:05.849Z,101153.84
2018-06-12T17:02:34.466Z,101146.91
2018-06-12T17:05:02.455Z,101144.75
2018-06-12T17:07:30.448Z,101138.68
2018-06-12T17:09:58.156Z,101149.63
2018-06-12T17:12:25.777Z,101151.81
2018-06-12T17:14:53.582Z,101153.58
2018-06-12T17:17:21.218Z,101155.77
2018-06-12T17:19:49.137Z,101154.50
2018-06-12T17:22:16.866Z,101150.98
2018-06-12T17:24:44.820Z,101151.77
2018-06-12T17:27:12.527Z,101149.09
2018-06-12T17:29:40.225Z,101154.38
2018-06-12T17:32:07.893Z,101154.41
2018-06-12T17:34:35.539Z,101141.27
2018-06-12T17:37:03.499Z,101147.81
2018-06-12T17:39:31.097Z,101144.31
2018-06-12T17:41:59.157Z,101161.89
2018-06-12T17:44:28.443Z,101160.17
2018-06-12T17:46:56.410Z,101159.73
2018-06-12T17:49:24.639Z,101140.35
2018-06-12T17:51:52.498Z,101139.87
2018-06-12T17:54:20.713Z,101142.50
2018-06-12T17:56:48.552Z,101151.81
2018-06-12T17:59:16.230Z,101150.94
2018-06-12T18:01:44.189Z,101151.34
2018-06-12T18:04:12.162Z,101145.63
2018-06-12T18:06:40.053Z,101149.58
2018-06-12T18:09:07.797Z,101147.39
2018-06-12T18:11:35.489Z,101143.44
2018-06-12T18:14:03.440Z,101146.59
2018-06-12T18:16:31.327Z,101150.50
2018-06-12T18:18:59.131Z,101152.27
2018-06-12T18:21:27.236Z,101144.91
2018-06-12T18:23:55.478Z,101145.40
2018-06-12T18:26:23.401Z,101143.73
2018-06-12T18:28:51.038Z,101153.83
2018-06-12T18:31:19.002Z,101155.70
2018-06-12T18:33:46.670Z,101155.25
2018-06-12T18:36:14.520Z,101151.02
2018-06-12T18:38:42.590Z,101153.97
2018-06-12T18:41:10.495Z,101147.38
2018-06-12T18:43:38.397Z,101143.83
2018-06-12T18:46:06.053Z,101147.38
2018-06-12T18:48:33.750Z,101145.14
2018-06-12T18:51:01.494Z,101146.46
2018-06-12T18:53:29.213Z,101142.95
2018-06-12T18:55:57.219Z,101145.58
2018-06-12T18:58:24.867Z,101149.09
2018-06-12T19:00:53.265Z,101144.26
2018-06-12T19:03:21.279Z,101142.50
2018-06-12T19:05:48.969Z,101144.66
2018-06-12T19:08:16.722Z,101146.89
2018-06-12T19:10:44.595Z,101150.84
2018-06-12T19:13:12.489Z,101153.05
2018-06-12T19:15:40.241Z,101153.09
2018-06-12T19:18:07.991Z,101158.00
2018-06-12T19:20:35.621Z,101160.55
2018-06-12T19:23:03.612Z,101160.12
2018-06-12T19:25:31.692Z,101171.14
2018-06-12T19:27:59.672Z,101173.30
2018-06-12T19:30:28.036Z,101172.50
2018-06-12T19:32:55.794Z,101170.26
2018-06-12T19:35:23.949Z,101170.78
2018-06-12T19:37:51.743Z,101172.09
2018-06-12T19:40:19.642Z,101173.81
2018-06-12T19:42:47.740Z,101173.81
2018-06-12T19:45:15.992Z,101182.63
2018-06-12T19:47:44.126Z,101180.44
2018-06-12T19:50:12.147Z,101180.88
2018-06-12T19:52:39.964Z,101188.86
2018-06-12T19:55:07.842Z,101187.11
2018-06-12T19:57:36.353Z,101187.11
2018-06-12T20:00:04.123Z,101190.63
2018-06-12T20:02:32.149Z,101184.03
2018-06-12T20:05:00.048Z,101187.11
2018-06-12T20:07:28.055Z,101191.53
2018-06-12T20:09:55.885Z,101183.63
2018-06-12T20:12:23.654Z,101183.16
2018-06-12T20:14:51.313Z,101191.94
2018-06-12T20:17:19.584Z,101190.58
2018-06-12T20:19:47.694Z,101197.13
2018-06-12T20:22:15.447Z,101191.42
2018-06-12T20:24:43.353Z,101200.75
2018-06-12T20:27:11.424Z,101191.89
2018-06-12T20:29:39.445Z,101200.64
2018-06-12T20:32:07.112Z,101209.87
2018-06-12T20:34:35.315Z,101203.28
2018-06-12T20:37:03.285Z,101201.52
2018-06-12T20:39:31.265Z,101198.44
2018-06-12T20:41:59.380Z,101199.16
2018-06-12T20:44:27.388Z,101187.79
2018-06-12T20:46:55.270Z,101194.38
2018-06-12T20:49:23.479Z,101186.59
2018-06-12T20:51:51.407Z,101181.31
2018-06-12T20:54:19.043Z,101188.78
2018-06-12T20:56:46.707Z,101184.03
2018-06-12T20:59:14.424Z,101187.55
2018-06-12T21:01:42.273Z,101187.98
2018-06-12T21:04:09.941Z,101188.42
2018-06-12T21:06:37.555Z,101191.06
2018-06-12T21:09:05.985Z,101200.75
2018-06-12T21:11:33.705Z,101198.52
2018-06-12T21:14:01.490Z,101189.78
2018-06-12T21:16:29.365Z,101195.97
2018-06-12T21:18:57.189Z,101195.12
2018-06-12T21:21:25.554Z,101202.16
2018-06-12T21:23:53.325Z,101200.84
2018-06-12T21:26:20.943Z,101201.75
2018-06-12T21:28:50.865Z,101203.51
2018-06-12T21:31:19.044Z,101203.47
2018-06-12T21:33:46.669Z,101198.60
2018-06-12T21:36:14.665Z,101199.08
2018-06-12T21:38:42.342Z,101196.00
2018-06-12T21:41:10.344Z,101204.39
2018-06-12T21:43:38.654Z,101198.23
2018-06-12T21:46:06.605Z,101204.39
2018-06-12T21:48:34.262Z,101205.30
2018-06-12T21:51:02.069Z,101208.42
2018-06-12T21:53:30.128Z,101201.03
2018-06-12T21:55:57.919Z,101202.34
2018-06-12T21:58:25.873Z,101192.69
2018-06-12T22:00:53.827Z,101196.20
2018-06-12T22:03:21.801Z,101192.69
2018-06-12T22:05:49.774Z,101197.11
2018-06-12T22:08:17.550Z,101189.25
2018-06-12T22:10:45.327Z,101190.17
2018-06-12T22:13:13.327Z,101198.51
2018-06-12T22:15:41.249Z,101197.20
2018-06-12T22:18:09.353Z,101197.63
2018-06-12T22:20:37.645Z,101194.59
2018-06-12T22:23:05.557Z,101188.02
2018-06-12T22:25:33.182Z,101195.52
2018-06-12T22:28:01.108Z,101187.17
2018-06-12T22:30:28.992Z,101191.12
2018-06-12T22:32:56.921Z,101183.66
2018-06-12T22:35:24.889Z,101193.80
2018-06-12T22:37:52.562Z,101189.41
2018-06-12T22:40:20.625Z,101195.99
2018-06-12T22:42:48.245Z,101193.88
2018-06-12T22:45:15.880Z,101192.59
2018-06-12T22:47:44.230Z,101194.83
2018-06-12T22:50:11.841Z,101197.46
2018-06-12T22:52:39.740Z,101196.19
2018-06-12T22:55:07.786Z,101206.72
2018-06-12T22:57:35.421Z,101215.94
2018-06-12T23:00:03.359Z,101215.97
2018-06-12T23:02:31.121Z,101216.01
2018-06-12T23:04:58.741Z,101211.26
2018-06-12T23:07:26.706Z,101214.77
2018-06-12T23:09:54.374Z,101213.45
2018-06-12T23:12:22.700Z,101209.06
2018-06-12T23:14:50.322Z,101210.85
2018-06-12T23:17:17.961Z,101210.42
2018-06-12T23:19:57.063Z,101203.43
2018-06-12T23:22:24.698Z,101201.31
2018-06-12T23:24:52.481Z,101206.17
2018-06-12T23:27:20.405Z,101210.13
2018-06-12T23:29:48.093Z,101196.12
2018-06-12T23:32:16.045Z,101199.63
2018-06-12T23:34:44.154Z,101201.42
2018-06-12T23:37:12.114Z,101199.70
2018-06-12T23:39:40.058Z,101199.34
2018-06-12T23:42:07.778Z,101195.39
2018-06-12T23:44:36.251Z,101195.39
2018-06-12T23:47:04.181Z,101186.17
2018-06-12T23:49:32.093Z,101187.48
2018-06-12T23:51:59.724Z,101180.91
2018-06-12T23:54:27.957Z,101186.17
2018-06-12T23:56:55.924Z,101184.86
2018-06-12T23:59:23.559Z,101182.22
